MMVR 090545Z 00000KT 4SM FEW010 23/23 A2996 RMK SLP129 52002 9// 8/100 BR= 090553

MMVR 090450Z 31002KT 7SM FEW012 24/23 A2997 RMK 8/100 BR= 090452

MMVR 090344Z 00000KT 7SM SCT015 24/23 A2997 RMK 8/100 BR= 090345

MMVR 090247Z 00000KT 7SM FEW015 24/23 A2996 RMK SLP127 52015 969 8/100 BR= 090254

MMVR 090150Z 00000KT 7SM SKC 25/23 A2994 RMK BR ISOL CU= 090151

MMVR 090049Z 00000KT 7SM SKC 25/24 A2992 RMK BR= 090050

MMVR 082348Z 13002KT 7SM SKC 25/24 A2990 RMK SLP112 57002 970 HZY= 082354

MMVR 082246Z 18002KT 7SM SKC 27/23 A2990 RMK HZY= 082247

MMVR 082147Z 09002KT 7SM SKC 28/23 A2989 RMK HZY= 082153

MMVR 082055Z 13003KT 7SM FEW015 29/23 A2990 RMK SLP114 57023 960 8/100 HZY= 082057

MMVR 081944Z 12005KT 7SM FEW015 30/23 A2991 RMK 8/100 HZY= 081951

MMVR 081847Z 12006KT 7SM FEW015 30/23 A2994 RMK 8/100 HZY= 081851

MMVR 081746Z 12004KT 6SM FEW015 29/23 A2998 RMK SLP137 57007 966 8/100 HZY= 081754

MMVR 081643Z 00000KT 4SM FEW015 28/23 A3001 RMK 8/100 BR HZ= 081644

MMVR 081550Z 00000KT 4SM SKC 27/24 A3003 RMK BR HZ= 081550

MMVR 081446Z 00000KT 3SM BR HZ SKC 25/23 A3003 RMK SLP144 52019 963= 081453

MMVR 081349Z 00000KT 2SM BR HZ SKC 22/21 A3001= 081350

MMVR 081247Z 00000KT 2SM BR HZ SKC 20/20 A2998= 081253

MMVR 081213Z RTD 00000KT 4SM SKC 21/21 A2996 RMK SLP125 5//// 970 BR RTS= 081218

MMVR 080447Z E00000KT 6SM FEW010 23/23 A2998 RMK 8/100 HZY ISOL CI= 080448

MMVR 080344Z E00000KT 7SM FEW010 23/23 A2998 RMK 8/100 HZY ISOL CI= 080345

MMVR 080249Z E03004KT 7SM FEW010 SCT200 24/24 A2998 RMK SLP146 52014 918 8/101 HZY= 080249

MMVR 080144Z E00000KT 7SM SCT010 SCT200 24/24 A2997 RMK 8/101 HZY= 080144

MMVR 080050Z E04005KT 7SM FEW010 SCT200 25/24 A2996 RMK 8/101 HZY= 080051

MMVR 072347Z 00000KT 7SM FEW012 SCT200 26/23 A2994 RMK SLP132 52008 924 8/101 HZY VTO E02005KT= 072347

MMVR 072247Z 00000KT 7SM FEW012 27/24 A2993 RMK 8/100 HZY VTO E36006KT= 072248

MMVR 072146Z 10008KT 7SM FEW012 28/23 A2993 RMK 8/100 HZY= 072146

MMVR 072042Z 06008KT 7SM FEW012 29/23 A2994 RMK SLP124 57029 909 8/100 HZY= 072044

MMVR 071940Z 21006KT 6SM SCT012 28/23 A2996 RMK 8/100 HZY= 071941

MMVR 071845Z 18008KT 6SM FEW015 29/23 A2998 RMK 8/100 HZY= 071845

MMVR 071746Z 17008KT 6SM FEW015 29/22 A3001 RMK SLP153 57004 932 8/100 HZY= 071746

MMVR 071640Z 00000KT 6SM SCT015 28/23 A3005 RMK 8/100 HZY= 071641

MMVR 071548Z 05003KT 5SM FEW015 28/23 A3006 RMK 8/500 HZY ISOL CI= 071548

MMVR 071445Z 00000KT 4SM FEW015 25/22 A3005 RMK SLP157 52012 934 8/500 HZY ISOL CI= 071446

MMVR 071341Z 00000KT 3SM BR HZ SKC 22/21 A3002= 071342

MMVR 071245Z 00000KT 3SM BR HZ SKC 22/21 A3000 RMK DSNT CU E= 071245

MMVR 071159Z RTD 35002KT 6SM FEW200 22/21 A3000 RMK SLP145 5/// 930 8/001 HZY RTS= 071200

MMVR 070443Z 00000KT 5SM FEW010 23/22 A3000 RMK 8/500 HZY= 070444

MMVR 070350Z 33003KT 5SM SKC 23/23 A3000 RMK HZY= 070350

MMVR 070254Z 00000KT 5SM SCT010 23/22 A2998 RMK SLP128 52020 955 8/500 HZY= 070255

MMVR 070141Z 00000KT 6SM SKC 25/23 A2995 RMK HZY ISOL SC= 070142

MMVR 070040Z 14003KT 5SM SKC 25/23 A2993 RMK HZY= 070040

MMVR 062347Z 11003KT 5SM SKC 25/22 A2992 RMK SLP108 57007 957 HZY= 062348

MMVR 062245Z 12004KT 7SM SKC 27/23 A2990 RMK HZY= 062246

MMVR 062140Z 15003KT 7SM SKC 27/22 A2989 RMK HZY= 062140

MMVR 062045Z 12005KT 7SM SKC 28/22 A2989 RMK SLP155 52034 990 HZY FU COLUMN W= 062048

MMVR 061943Z 12005KT 6SM FEW010 29/23 A2990 RMK 8/100 HZ= 061943

MMVR 061843Z 18004KT 6SM SCT012 30/22 A2994 RMK 8/100 HZ= 061844

MMVR 061743Z 22003KT 6SM FEW010 29/22 A2997 RMK SLP121 57002 978 8/100 HZ= 061744

MMVR 061644Z 24006KT 6SM SKC 28/22 A3000 RMK HZ ISOL CU= 061645